sensor_id;sensor_type;location;lat;lon;timestamp;pressure;altitude;pressure_sealevel;temperature;humidity
62418;BME280;48456;54.242;10.280;2022-11-15T00:00:33;101011.91;;;3.45;100.00
62418;BME280;48456;54.242;10.280;2022-11-15T00:03:00;101012.69;;;3.43;100.00
62418;BME280;48456;54.242;10.280;2022-11-15T00:05:26;101011.63;;;3.36;100.00
62418;BME280;48456;54.242;10.280;2022-11-15T00:07:52;101005.16;;;3.23;100.00
62418;BME280;48456;54.242;10.280;2022-11-15T00:10:21;101004.31;;;3.24;100.00
62418;BME280;48456;54.242;10.280;2022-11-15T00:12:47;101000.16;;;3.31;100.00
62418;BME280;48456;54.242;10.280;2022-11-15T00:15:13;101006.59;;;3.42;100.00
62418;BME280;48456;54.242;10.280;2022-11-15T00:17:40;101005.13;;;3.52;100.00
62418;BME280;48456;54.242;10.280;2022-11-15T00:20:06;101006.88;;;3.53;100.00
62418;BME280;48456;54.242;10.280;2022-11-15T00:22:33;101010.66;;;3.63;100.00
62418;BME280;48456;54.242;10.280;2022-11-15T00:24:59;101013.38;;;3.68;100.00
62418;BME280;48456;54.242;10.280;2022-11-15T00:27:26;101006.38;;;3.67;100.00
62418;BME280;48456;54.242;10.280;2022-11-15T00:29:53;100999.63;;;3.75;100.00
62418;BME280;48456;54.242;10.280;2022-11-15T00:32:19;100983.19;;;3.81;100.00
62418;BME280;48456;54.242;10.280;2022-11-15T00:34:46;100995.75;;;3.94;100.00
62418;BME280;48456;54.242;10.280;2022-11-15T00:37:12;101002.16;;;4.06;100.00
62418;BME280;48456;54.242;10.280;2022-11-15T00:39:38;100993.59;;;4.11;100.00
62418;BME280;48456;54.242;10.280;2022-11-15T00:42:04;100995.44;;;4.17;100.00
62418;BME280;48456;54.242;10.280;2022-11-15T00:44:31;100990.31;;;4.20;100.00
62418;BME280;48456;54.242;10.280;2022-11-15T00:46:57;100989.41;;;4.18;100.00
62418;BME280;48456;54.242;10.280;2022-11-15T00:49:23;100978.84;;;4.15;100.00
62418;BME280;48456;54.242;10.280;2022-11-15T00:51:50;100986.78;;;4.18;100.00
62418;BME280;48456;54.242;10.280;2022-11-15T00:54:16;100982.34;;;4.17;100.00
62418;BME280;48456;54.242;10.280;2022-11-15T00:56:42;100986.81;;;4.20;100.00
62418;BME280;48456;54.242;10.280;2022-11-15T00:59:08;100986.97;;;4.26;100.00
62418;BME280;48456;54.242;10.280;2022-11-15T01:01:35;100986.13;;;4.28;100.00
62418;BME280;48456;54.242;10.280;2022-11-15T01:04:01;100975.66;;;4.28;100.00
62418;BME280;48456;54.242;10.280;2022-11-15T01:06:28;100975.75;;;4.32;100.00
62418;BME280;48456;54.242;10.280;2022-11-15T01:08:54;100971.38;;;4.31;100.00
62418;BME280;48456;54.242;10.280;2022-11-15T01:11:20;100974.75;;;4.26;100.00
62418;BME280;48456;54.242;10.280;2022-11-15T01:13:47;100968.63;;;4.26;100.00
62418;BME280;48456;54.242;10.280;2022-11-15T01:16:14;100965.16;;;4.27;100.00
62418;BME280;48456;54.242;10.280;2022-11-15T01:18:41;100970.34;;;4.25;100.00
62418;BME280;48456;54.242;10.280;2022-11-15T01:21:08;100960.84;;;4.29;100.00
62418;BME280;48456;54.242;10.280;2022-11-15T01:23:35;100967.06;;;4.34;100.00
62418;BME280;48456;54.242;10.280;2022-11-15T01:26:03;100962.75;;;4.36;100.00
62418;BME280;48456;54.242;10.280;2022-11-15T01:28:33;100961.97;;;4.39;100.00
62418;BME280;48456;54.242;10.280;2022-11-15T01:31:00;100968.19;;;4.44;100.00
62418;BME280;48456;54.242;10.280;2022-11-15T01:33:27;100972.59;;;4.47;100.00
62418;BME280;48456;54.242;10.280;2022-11-15T01:35:54;100967.38;;;4.47;100.00
62418;BME280;48456;54.242;10.280;2022-11-15T01:38:21;100958.63;;;4.46;100.00
62418;BME280;48456;54.242;10.280;2022-11-15T01:40:48;100967.28;;;4.44;100.00
62418;BME280;48456;54.242;10.280;2022-11-15T01:45:52;100956.69;;;4.37;100.00
62418;BME280;48456;54.242;10.280;2022-11-15T01:48:22;100949.59;;;4.33;100.00
62418;BME280;48456;54.242;10.280;2022-11-15T01:50:50;100952.91;;;4.26;100.00
62418;BME280;48456;54.242;10.280;2022-11-15T01:53:17;100948.41;;;4.20;100.00
62418;BME280;48456;54.242;10.280;2022-11-15T01:55:45;100942.31;;;4.21;100.00
62418;BME280;48456;54.242;10.280;2022-11-15T01:58:11;100938.81;;;4.21;100.00
62418;BME280;48456;54.242;10.280;2022-11-15T02:00:38;100932.84;;;4.26;100.00
62418;BME280;48456;54.242;10.280;2022-11-15T02:03:04;100932.72;;;4.22;100.00
62418;BME280;48456;54.242;10.280;2022-11-15T02:05:31;100932.81;;;4.25;100.00
62418;BME280;48456;54.242;10.280;2022-11-15T02:07:57;100937.16;;;4.24;100.00
62418;BME280;48456;54.242;10.280;2022-11-15T02:10:25;100934.44;;;4.20;100.00
62418;BME280;48456;54.242;10.280;2022-11-15T02:12:53;100935.00;;;4.08;100.00
62418;BME280;48456;54.242;10.280;2022-11-15T02:15:20;100942.81;;;4.06;100.00
62418;BME280;48456;54.242;10.280;2022-11-15T02:18:05;100932.13;;;3.97;100.00
62418;BME280;48456;54.242;10.280;2022-11-15T02:20:48;100928.59;;;3.95;100.00
62418;BME280;48456;54.242;10.280;2022-11-15T02:26:05;100926.97;;;4.00;100.00
62418;BME280;48456;54.242;10.280;2022-11-15T02:31:28;100931.31;;;3.99;100.00
62418;BME280;48456;54.242;10.280;2022-11-15T02:36:59;100929.50;;;3.97;100.00
62418;BME280;48456;54.242;10.280;2022-11-15T02:42:02;100928.66;;;3.96;100.00
62418;BME280;48456;54.242;10.280;2022-11-15T02:44:40;100927.63;;;3.91;100.00
62418;BME280;48456;54.242;10.280;2022-11-15T02:47:11;100926.66;;;3.87;100.00
62418;BME280;48456;54.242;10.280;2022-11-15T02:49:50;100923.13;;;3.85;100.00
62418;BME280;48456;54.242;10.280;2022-11-15T02:52:19;100919.53;;;3.82;100.00
62418;BME280;48456;54.242;10.280;2022-11-15T02:54:55;100922.13;;;3.80;100.00
62418;BME280;48456;54.242;10.280;2022-11-15T02:57:27;100914.28;;;3.80;100.00
62418;BME280;48456;54.242;10.280;2022-11-15T03:05:07;100916.38;;;3.60;100.00
62418;BME280;48456;54.242;10.280;2022-11-15T03:08:13;100916.28;;;3.57;100.00
62418;BME280;48456;54.242;10.280;2022-11-15T03:18:35;100924.56;;;3.40;100.00
62418;BME280;48456;54.242;10.280;2022-11-15T03:21:04;100914.16;;;3.42;100.00
62418;BME280;48456;54.242;10.280;2022-11-15T03:23:31;100916.56;;;3.34;100.00
62418;BME280;48456;54.242;10.280;2022-11-15T03:25:59;100912.00;;;3.27;100.00
62418;BME280;48456;54.242;10.280;2022-11-15T03:28:32;100900.41;;;3.17;100.00
62418;BME280;48456;54.242;10.280;2022-11-15T03:31:00;100907.16;;;3.08;100.00
62418;BME280;48456;54.242;10.280;2022-11-15T03:33:48;100897.13;;;2.93;100.00
62418;BME280;48456;54.242;10.280;2022-11-15T03:36:15;100892.59;;;2.86;100.00
62418;BME280;48456;54.242;10.280;2022-11-15T03:38:42;100899.50;;;2.84;100.00
62418;BME280;48456;54.242;10.280;2022-11-15T03:41:28;100895.78;;;2.76;100.00
62418;BME280;48456;54.242;10.280;2022-11-15T03:46:40;100892.34;;;2.78;100.00
62418;BME280;48456;54.242;10.280;2022-11-15T03:49:11;100901.84;;;2.75;100.00
62418;BME280;48456;54.242;10.280;2022-11-15T03:51:40;100895.47;;;2.65;100.00
62418;BME280;48456;54.242;10.280;2022-11-15T03:54:07;100893.59;;;2.60;100.00
62418;BME280;48456;54.242;10.280;2022-11-15T03:56:33;100895.84;;;2.48;100.00
62418;BME280;48456;54.242;10.280;2022-11-15T03:58:59;100899.19;;;2.44;100.00
62418;BME280;48456;54.242;10.280;2022-11-15T04:01:26;100899.97;;;2.41;100.00
62418;BME280;48456;54.242;10.280;2022-11-15T04:03:52;100901.69;;;2.39;100.00
62418;BME280;48456;54.242;10.280;2022-11-15T04:06:18;100900.94;;;2.43;100.00
62418;BME280;48456;54.242;10.280;2022-11-15T04:08:45;100902.69;;;2.44;100.00
62418;BME280;48456;54.242;10.280;2022-11-15T04:11:11;100905.25;;;2.43;100.00
62418;BME280;48456;54.242;10.280;2022-11-15T04:13:37;100907.06;;;2.45;100.00
62418;BME280;48456;54.242;10.280;2022-11-15T04:16:04;100902.06;;;2.52;100.00
62418;BME280;48456;54.242;10.280;2022-11-15T04:18:30;100890.75;;;2.53;100.00
62418;BME280;48456;54.242;10.280;2022-11-15T04:20:56;100889.91;;;2.54;100.00
62418;BME280;48456;54.242;10.280;2022-11-15T04:23:41;100898.91;;;2.64;100.00
62418;BME280;48456;54.242;10.280;2022-11-15T04:26:33;100894.59;;;2.66;100.00
62418;BME280;48456;54.242;10.280;2022-11-15T04:29:00;100887.66;;;2.66;100.00
62418;BME280;48456;54.242;10.280;2022-11-15T04:31:44;100900.69;;;2.65;100.00
62418;BME280;48456;54.242;10.280;2022-11-15T04:34:11;100899.75;;;2.63;100.00
62418;BME280;48456;54.242;10.280;2022-11-15T04:36:37;100898.72;;;2.57;100.00
62418;BME280;48456;54.242;10.280;2022-11-15T04:39:22;100899.56;;;2.56;100.00
62418;BME280;48456;54.242;10.280;2022-11-15T04:41:48;100899.50;;;2.55;100.00
62418;BME280;48456;54.242;10.280;2022-11-15T04:44:14;100906.47;;;2.54;100.00
62418;BME280;48456;54.242;10.280;2022-11-15T04:46:42;100908.25;;;2.55;100.00
62418;BME280;48456;54.242;10.280;2022-11-15T04:49:09;100903.72;;;2.50;100.00
62418;BME280;48456;54.242;10.280;2022-11-15T04:51:35;100908.09;;;2.51;100.00
62418;BME280;48456;54.242;10.280;2022-11-15T04:54:01;100916.06;;;2.55;100.00
62418;BME280;48456;54.242;10.280;2022-11-15T04:56:28;100910.66;;;2.49;100.00
62418;BME280;48456;54.242;10.280;2022-11-15T04:58:54;100904.41;;;2.44;100.00
62418;BME280;48456;54.242;10.280;2022-11-15T05:01:20;100907.91;;;2.44;100.00
62418;BME280;48456;54.242;10.280;2022-11-15T05:03:47;100905.44;;;2.49;100.00
62418;BME280;48456;54.242;10.280;2022-11-15T05:06:32;100904.69;;;2.53;100.00
62418;BME280;48456;54.242;10.280;2022-11-15T05:08:58;100908.34;;;2.58;100.00
62418;BME280;48456;54.242;10.280;2022-11-15T05:11:25;100910.16;;;2.61;100.00
62418;BME280;48456;54.242;10.280;2022-11-15T05:13:53;100907.66;;;2.64;100.00
62418;BME280;48456;54.242;10.280;2022-11-15T05:16:19;100903.06;;;2.57;100.00
62418;BME280;48456;54.242;10.280;2022-11-15T05:18:45;100901.22;;;2.53;100.00
62418;BME280;48456;54.242;10.280;2022-11-15T05:21:13;100901.84;;;2.45;100.00
62418;BME280;48456;54.242;10.280;2022-11-15T05:23:39;100903.66;;;2.48;100.00
62418;BME280;48456;54.242;10.280;2022-11-15T05:26:06;100908.41;;;2.60;100.00
62418;BME280;48456;54.242;10.280;2022-11-15T05:28:34;100904.19;;;2.65;100.00
62418;BME280;48456;54.242;10.280;2022-11-15T05:31:20;100902.00;;;2.81;100.00
62418;BME280;48456;54.242;10.280;2022-11-15T05:33:46;100901.50;;;2.93;100.00
62418;BME280;48456;54.242;10.280;2022-11-15T05:38:51;100891.69;;;3.16;100.00
62418;BME280;48456;54.242;10.280;2022-11-15T05:41:18;100895.41;;;3.24;100.00
62418;BME280;48456;54.242;10.280;2022-11-15T05:43:46;100898.13;;;3.29;100.00
62418;BME280;48456;54.242;10.280;2022-11-15T05:46:14;100891.28;;;3.34;100.00
62418;BME280;48456;54.242;10.280;2022-11-15T05:48:41;100906.31;;;3.42;100.00
62418;BME280;48456;54.242;10.280;2022-11-15T05:51:09;100906.50;;;3.48;100.00
62418;BME280;48456;54.242;10.280;2022-11-15T05:53:35;100897.78;;;3.49;100.00
62418;BME280;48456;54.242;10.280;2022-11-15T05:56:02;100893.47;;;3.51;100.00
62418;BME280;48456;54.242;10.280;2022-11-15T05:58:31;100900.53;;;3.55;100.00
62418;BME280;48456;54.242;10.280;2022-11-15T06:00:57;100896.25;;;3.57;100.00
62418;BME280;48456;54.242;10.280;2022-11-15T06:03:23;100895.44;;;3.60;100.00
62418;BME280;48456;54.242;10.280;2022-11-15T06:05:50;100893.78;;;3.63;100.00
62418;BME280;48456;54.242;10.280;2022-11-15T06:08:16;100897.38;;;3.67;100.00
62418;BME280;48456;54.242;10.280;2022-11-15T06:10:43;100885.16;;;3.68;100.00
62418;BME280;48456;54.242;10.280;2022-11-15T06:13:09;100880.88;;;3.70;100.00
62418;BME280;48456;54.242;10.280;2022-11-15T06:15:35;100885.22;;;3.69;100.00
62418;BME280;48456;54.242;10.280;2022-11-15T06:18:02;100873.03;;;3.70;100.00
62418;BME280;48456;54.242;10.280;2022-11-15T06:20:28;100876.63;;;3.75;100.00
62418;BME280;48456;54.242;10.280;2022-11-15T06:22:58;100882.78;;;3.75;100.00
62418;BME280;48456;54.242;10.280;2022-11-15T06:25:25;100875.81;;;3.77;100.00
62418;BME280;48456;54.242;10.280;2022-11-15T06:27:52;100881.16;;;3.81;100.00
62418;BME280;48456;54.242;10.280;2022-11-15T06:30:19;100883.03;;;3.86;100.00
62418;BME280;48456;54.242;10.280;2022-11-15T06:32:45;100896.31;;;3.94;100.00
62418;BME280;48456;54.242;10.280;2022-11-15T06:35:12;100896.47;;;4.02;100.00
62418;BME280;48456;54.242;10.280;2022-11-15T06:37:38;100897.41;;;4.04;100.00
62418;BME280;48456;54.242;10.280;2022-11-15T06:40:05;100904.50;;;4.08;100.00
62418;BME280;48456;54.242;10.280;2022-11-15T06:42:32;100904.75;;;4.19;100.00
62418;BME280;48456;54.242;10.280;2022-11-15T06:44:58;100904.91;;;4.27;100.00
62418;BME280;48456;54.242;10.280;2022-11-15T06:47:24;100916.38;;;4.31;100.00
62418;BME280;48456;54.242;10.280;2022-11-15T06:49:51;100919.13;;;4.37;100.00
62418;BME280;48456;54.242;10.280;2022-11-15T06:52:17;100911.41;;;4.43;100.00
62418;BME280;48456;54.242;10.280;2022-11-15T06:54:45;100915.88;;;4.49;100.00
62418;BME280;48456;54.242;10.280;2022-11-15T06:57:11;100903.78;;;4.54;100.00
62418;BME280;48456;54.242;10.280;2022-11-15T06:59:38;100904.75;;;4.58;100.00
62418;BME280;48456;54.242;10.280;2022-11-15T07:02:06;100909.19;;;4.62;100.00
62418;BME280;48456;54.242;10.280;2022-11-15T07:04:33;100918.97;;;4.69;100.00
62418;BME280;48456;54.242;10.280;2022-11-15T07:07:00;100927.88;;;4.77;100.00
62418;BME280;48456;54.242;10.280;2022-11-15T07:09:26;100927.06;;;4.80;100.00
62418;BME280;48456;54.242;10.280;2022-11-15T07:11:52;100934.13;;;4.84;100.00
62418;BME280;48456;54.242;10.280;2022-11-15T07:14:19;100937.75;;;4.89;100.00
62418;BME280;48456;54.242;10.280;2022-11-15T07:16:45;100936.03;;;4.91;100.00
62418;BME280;48456;54.242;10.280;2022-11-15T07:19:11;100930.84;;;4.94;100.00
62418;BME280;48456;54.242;10.280;2022-11-15T07:21:38;100948.47;;;5.02;100.00
62418;BME280;48456;54.242;10.280;2022-11-15T07:24:04;100949.47;;;5.07;100.00
62418;BME280;48456;54.242;10.280;2022-11-15T07:26:30;100950.44;;;5.12;100.00
62418;BME280;48456;54.242;10.280;2022-11-15T07:28:57;100942.63;;;5.15;100.00
62418;BME280;48456;54.242;10.280;2022-11-15T07:31:23;100946.16;;;5.17;100.00
62418;BME280;48456;54.242;10.280;2022-11-15T07:33:50;100951.47;;;5.20;100.00
62418;BME280;48456;54.242;10.280;2022-11-15T07:36:16;100959.41;;;5.24;100.00
62418;BME280;48456;54.242;10.280;2022-11-15T07:38:42;100961.28;;;5.29;100.00
62418;BME280;48456;54.242;10.280;2022-11-15T07:41:09;100962.25;;;5.35;100.00
62418;BME280;48456;54.242;10.280;2022-11-15T07:43:35;100964.97;;;5.39;100.00
62418;BME280;48456;54.242;10.280;2022-11-15T07:46:05;100964.13;;;5.40;100.00
62418;BME280;48456;54.242;10.280;2022-11-15T07:48:35;100974.72;;;5.46;100.00
62418;BME280;48456;54.242;10.280;2022-11-15T07:51:11;100968.63;;;5.49;100.00
62418;BME280;48456;54.242;10.280;2022-11-15T07:53:39;100966.16;;;5.55;100.00
62418;BME280;48456;54.242;10.280;2022-11-15T07:56:06;100961.88;;;5.61;100.00
62418;BME280;48456;54.242;10.280;2022-11-15T07:58:33;100951.47;;;5.65;100.00
62418;BME280;48456;54.242;10.280;2022-11-15T08:01:03;100948.91;;;5.70;100.00
62418;BME280;48456;54.242;10.280;2022-11-15T08:03:30;100946.34;;;5.73;100.00
62418;BME280;48456;54.242;10.280;2022-11-15T08:05:56;100941.16;;;5.76;100.00
62418;BME280;48456;54.242;10.280;2022-11-15T08:08:23;100946.44;;;5.79;100.00
62418;BME280;48456;54.242;10.280;2022-11-15T08:10:49;100944.00;;;5.89;100.00
62418;BME280;48456;54.242;10.280;2022-11-15T08:13:16;100942.28;;;5.91;100.00
62418;BME280;48456;54.242;10.280;2022-11-15T08:15:43;100944.97;;;5.94;100.00
62418;BME280;48456;54.242;10.280;2022-11-15T08:18:10;100935.41;;;5.99;100.00
62418;BME280;48456;54.242;10.280;2022-11-15T08:20:39;100940.72;;;6.02;100.00
62418;BME280;48456;54.242;10.280;2022-11-15T08:23:05;100937.31;;;6.06;100.00
62418;BME280;48456;54.242;10.280;2022-11-15T08:25:32;100933.06;;;6.13;100.00
62418;BME280;48456;54.242;10.280;2022-11-15T08:28:00;100933.09;;;6.16;100.00
62418;BME280;48456;54.242;10.280;2022-11-15T08:30:27;100934.94;;;6.20;100.00
62418;BME280;48456;54.242;10.280;2022-11-15T08:32:53;100936.78;;;6.29;100.00
62418;BME280;48456;54.242;10.280;2022-11-15T08:35:21;100932.44;;;6.30;100.00
62418;BME280;48456;54.242;10.280;2022-11-15T08:37:54;100930.69;;;6.32;100.00
62418;BME280;48456;54.242;10.280;2022-11-15T08:40:20;100935.13;;;6.34;100.00
62418;BME280;48456;54.242;10.280;2022-11-15T08:42:47;100931.66;;;6.35;100.00
62418;BME280;48456;54.242;10.280;2022-11-15T08:45:13;100940.44;;;6.39;100.00
62418;BME280;48456;54.242;10.280;2022-11-15T08:47:40;100936.97;;;6.42;100.00
62418;BME280;48456;54.242;10.280;2022-11-15T08:50:06;100942.34;;;6.49;100.00
62418;BME280;48456;54.242;10.280;2022-11-15T08:52:33;100941.44;;;6.47;100.00
62418;BME280;48456;54.242;10.280;2022-11-15T08:54:59;100937.97;;;6.50;100.00
62418;BME280;48456;54.242;10.280;2022-11-15T08:57:28;100933.66;;;6.54;100.00
62418;BME280;48456;54.242;10.280;2022-11-15T08:59:54;100937.28;;;6.63;100.00
62418;BME280;48456;54.242;10.280;2022-11-15T09:02:20;100935.56;;;6.64;100.00
62418;BME280;48456;54.242;10.280;2022-11-15T09:04:47;100937.38;;;6.68;100.00
62418;BME280;48456;54.242;10.280;2022-11-15T09:07:14;100935.63;;;6.70;100.00
62418;BME280;48456;54.242;10.280;2022-11-15T09:09:40;100933.91;;;6.72;100.00
62418;BME280;48456;54.242;10.280;2022-11-15T09:12:07;100933.97;;;6.77;100.00
62418;BME280;48456;54.242;10.280;2022-11-15T09:14:33;100930.38;;;6.70;100.00
62418;BME280;48456;54.242;10.280;2022-11-15T09:17:00;100929.53;;;6.73;100.00
62418;BME280;48456;54.242;10.280;2022-11-15T09:19:27;100928.72;;;6.77;100.00
62418;BME280;48456;54.242;10.280;2022-11-15T09:21:53;100934.88;;;6.79;100.00
62418;BME280;48456;54.242;10.280;2022-11-15T09:24:20;100932.31;;;6.82;100.00
62418;BME280;48456;54.242;10.280;2022-11-15T09:26:47;100939.38;;;6.89;100.00
62418;BME280;48456;54.242;10.280;2022-11-15T09:29:15;100937.69;;;6.92;100.00
62418;BME280;48456;54.242;10.280;2022-11-15T09:31:41;100943.00;;;6.95;100.00
62418;BME280;48456;54.242;10.280;2022-11-15T09:34:08;100950.06;;;6.99;100.00
62418;BME280;48456;54.242;10.280;2022-11-15T09:36:34;100942.16;;;6.99;100.00
62418;BME280;48456;54.242;10.280;2022-11-15T09:39:01;100939.56;;;7.04;100.00
62418;BME280;48456;54.242;10.280;2022-11-15T09:44:19;100947.53;;;7.08;100.00
62418;BME280;48456;54.242;10.280;2022-11-15T09:49:17;100946.63;;;7.08;100.00
62418;BME280;48456;54.242;10.280;2022-11-15T09:51:45;100941.44;;;7.11;100.00
62418;BME280;48456;54.242;10.280;2022-11-15T09:54:21;100938.84;;;7.15;100.00
62418;BME280;48456;54.242;10.280;2022-11-15T09:57:14;100944.13;;;7.19;100.00
62418;BME280;48456;54.242;10.280;2022-11-15T10:04:40;100939.91;;;7.30;100.00
62418;BME280;48456;54.242;10.280;2022-11-15T10:07:27;100939.91;;;7.30;100.00
62418;BME280;48456;54.242;10.280;2022-11-15T10:10:00;100940.78;;;7.29;100.00
62418;BME280;48456;54.242;10.280;2022-11-15T10:12:29;100939.03;;;7.33;100.00
62418;BME280;48456;54.242;10.280;2022-11-15T10:15:04;100936.41;;;7.33;100.00
62418;BME280;48456;54.242;10.280;2022-11-15T10:20:10;100918.88;;;7.33;100.00
62418;BME280;48456;54.242;10.280;2022-11-15T10:22:48;100910.13;;;7.36;100.00
62418;BME280;48456;54.242;10.280;2022-11-15T10:27:54;100898.69;;;7.34;100.00
62418;BME280;48456;54.242;10.280;2022-11-15T10:30:20;100899.63;;;7.36;100.00
62418;BME280;48456;54.242;10.280;2022-11-15T10:32:47;100902.25;;;7.39;100.00
62418;BME280;48456;54.242;10.280;2022-11-15T10:35:28;100905.81;;;7.41;100.00
62418;BME280;48456;54.242;10.280;2022-11-15T10:38:07;100911.09;;;7.44;100.00
62418;BME280;48456;54.242;10.280;2022-11-15T10:40:35;100906.69;;;7.41;100.00
62418;BME280;48456;54.242;10.280;2022-11-15T10:43:10;100905.84;;;7.44;100.00
62418;BME280;48456;54.242;10.280;2022-11-15T10:45:38;100905.88;;;7.46;100.00
62418;BME280;48456;54.242;10.280;2022-11-15T10:50:38;100904.13;;;7.49;100.00
62418;BME280;48456;54.242;10.280;2022-11-15T10:53:12;100903.28;;;7.52;100.00
62418;BME280;48456;54.242;10.280;2022-11-15T10:55:46;100898.88;;;7.51;100.00
62418;BME280;48456;54.242;10.280;2022-11-15T10:58:36;100900.69;;;7.58;100.00
62418;BME280;48456;54.242;10.280;2022-11-15T11:01:10;100897.19;;;7.58;100.00
62418;BME280;48456;54.242;10.280;2022-11-15T11:03:38;100899.75;;;7.53;100.00
62418;BME280;48456;54.242;10.280;2022-11-15T11:06:15;100891.88;;;7.53;100.00
62418;BME280;48456;54.242;10.280;2022-11-15T11:08:53;100891.00;;;7.52;100.00
62418;BME280;48456;54.242;10.280;2022-11-15T11:11:20;100890.13;;;7.52;100.00
62418;BME280;48456;54.242;10.280;2022-11-15T11:13:46;100891.88;;;7.50;100.00
62418;BME280;48456;54.242;10.280;2022-11-15T11:19:39;100896.22;;;7.49;100.00
62418;BME280;48456;54.242;10.280;2022-11-15T11:22:10;100893.63;;;7.51;100.00
62418;BME280;48456;54.242;10.280;2022-11-15T11:24:42;100891.88;;;7.54;100.00
62418;BME280;48456;54.242;10.280;2022-11-15T11:37:40;100860.31;;;7.56;100.00
62418;BME280;48456;54.242;10.280;2022-11-15T11:42:46;100865.63;;;7.59;100.00
62418;BME280;48456;54.242;10.280;2022-11-15T11:45:23;100869.13;;;7.61;100.00
62418;BME280;48456;54.242;10.280;2022-11-15T11:47:57;100859.53;;;7.65;100.00
62418;BME280;48456;54.242;10.280;2022-11-15T11:50:26;100861.28;;;7.66;100.00
62418;BME280;48456;54.242;10.280;2022-11-15T11:52:58;100855.16;;;7.67;100.00
62418;BME280;48456;54.242;10.280;2022-11-15T11:55:31;100862.19;;;7.70;100.00
62418;BME280;48456;54.242;10.280;2022-11-15T12:00:31;100852.59;;;7.73;100.00
62418;BME280;48456;54.242;10.280;2022-11-15T12:08:22;100845.56;;;7.75;100.00
62418;BME280;48456;54.242;10.280;2022-11-15T12:10:57;100851.72;;;7.76;100.00
62418;BME280;48456;54.242;10.280;2022-11-15T12:13:25;100850.00;;;7.81;100.00
62418;BME280;48456;54.242;10.280;2022-11-15T12:16:00;100841.25;;;7.85;100.00
62418;BME280;48456;54.242;10.280;2022-11-15T12:18:35;100834.25;;;7.89;100.00
62418;BME280;48456;54.242;10.280;2022-11-15T12:21:04;100835.16;;;7.91;100.00
62418;BME280;48456;54.242;10.280;2022-11-15T12:23:34;100838.66;;;7.93;100.00
62418;BME280;48456;54.242;10.280;2022-11-15T12:26:26;100838.69;;;7.95;100.00
62418;BME280;48456;54.242;10.280;2022-11-15T12:28:55;100841.31;;;7.96;100.00
62418;BME280;48456;54.242;10.280;2022-11-15T12:31:40;100838.69;;;7.96;100.00
62418;BME280;48456;54.242;10.280;2022-11-15T12:36:46;100836.94;;;7.95;100.00
62418;BME280;48456;54.242;10.280;2022-11-15T12:39:13;100836.06;;;7.98;100.00
62418;BME280;48456;54.242;10.280;2022-11-15T12:41:41;100832.53;;;7.97;100.00
62418;BME280;48456;54.242;10.280;2022-11-15T12:44:12;100825.56;;;7.99;100.00
62418;BME280;48456;54.242;10.280;2022-11-15T12:49:09;100817.72;;;8.10;100.00
62418;BME280;48456;54.242;10.280;2022-11-15T13:02:24;100809.03;;;8.27;100.00
62418;BME280;48456;54.242;10.280;2022-11-15T13:04:51;100805.50;;;8.28;100.00
62418;BME280;48456;54.242;10.280;2022-11-15T13:08:03;100802.88;;;8.32;100.00
62418;BME280;48456;54.242;10.280;2022-11-15T13:17:45;100794.13;;;8.38;100.00
62418;BME280;48456;54.242;10.280;2022-11-15T13:22:48;100799.41;;;8.38;100.00
62418;BME280;48456;54.242;10.280;2022-11-15T13:25:20;100795.91;;;8.39;100.00
62418;BME280;48456;54.242;10.280;2022-11-15T13:27:48;100796.78;;;8.40;100.00
62418;BME280;48456;54.242;10.280;2022-11-15T13:30:20;100789.75;;;8.40;100.00
62418;BME280;48456;54.242;10.280;2022-11-15T13:32:47;100787.13;;;8.40;100.00
62418;BME280;48456;54.242;10.280;2022-11-15T13:35:20;100782.72;;;8.41;100.00
62418;BME280;48456;54.242;10.280;2022-11-15T13:37:47;100780.97;;;8.41;100.00
62418;BME280;48456;54.242;10.280;2022-11-15T13:42:49;100756.38;;;8.45;100.00
62418;BME280;48456;54.242;10.280;2022-11-15T13:45:17;100752.84;;;8.45;100.00
62418;BME280;48456;54.242;10.280;2022-11-15T13:47:44;100757.28;;;8.49;100.00
62418;BME280;48456;54.242;10.280;2022-11-15T13:50:11;100745.00;;;8.51;100.00
62418;BME280;48456;54.242;10.280;2022-11-15T13:52:38;100743.25;;;8.53;100.00
62418;BME280;48456;54.242;10.280;2022-11-15T13:55:10;100748.56;;;8.58;100.00
62418;BME280;48456;54.242;10.280;2022-11-15T13:57:43;100748.56;;;8.61;100.00
62418;BME280;48456;54.242;10.280;2022-11-15T14:00:24;100745.91;;;8.64;100.00
62418;BME280;48456;54.242;10.280;2022-11-15T14:02:51;100746.81;;;8.66;100.00
62418;BME280;48456;54.242;10.280;2022-11-15T14:05:18;100745.06;;;8.70;100.00
62418;BME280;48456;54.242;10.280;2022-11-15T14:07:55;100755.63;;;8.73;100.00
62418;BME280;48456;54.242;10.280;2022-11-15T14:12:51;100746.84;;;8.74;100.00
62418;BME280;48456;54.242;10.280;2022-11-15T14:15:26;100750.38;;;8.76;100.00
62418;BME280;48456;54.242;10.280;2022-11-15T14:17:53;100752.13;;;8.76;100.00
62418;BME280;48456;54.242;10.280;2022-11-15T14:22:52;100746.84;;;8.77;100.00
62418;BME280;48456;54.242;10.280;2022-11-15T14:25:22;100760.03;;;8.77;100.00
62418;BME280;48456;54.242;10.280;2022-11-15T14:30:33;100759.13;;;8.75;100.00
62418;BME280;48456;54.242;10.280;2022-11-15T14:33:00;100758.28;;;8.75;100.00
62418;BME280;48456;54.242;10.280;2022-11-15T14:35:26;100756.50;;;8.75;100.00
62418;BME280;48456;54.242;10.280;2022-11-15T14:37:53;100761.78;;;8.77;100.00
62418;BME280;48456;54.242;10.280;2022-11-15T14:40:20;100759.16;;;8.77;100.00